Time;durP1;ratioP1;P1;durP2;ratioP2;P2;SDS_P1;SDS_P2;PMS_P1;PMS_P2;Temp;Humidity;BMP_temperature;BMP_pressure;BME280_temperature;BME280_humidity;BME280_pressure;Samples;Min_cycle;Max_cycle;Signal;HPM_P1;HPM_P2
2022/04/16 00:01:34;;;;;;;6.93;2.35;;;;;;;;;;4983609;28;20034;-76
2022/04/16 00:03:59;;;;;;;8.02;2.40;;;;;;;;;;4996092;28;20505;-76
2022/04/16 00:06:24;;;;;;;5.22;2.47;;;;;;;;;;4995385;28;20041;-76
2022/04/16 00:08:49;;;;;;;5.88;2.63;;;;;;;;;;4993589;28;20034;-76
2022/04/16 00:11:15;;;;;;;6.93;2.60;;;;;;;;;;4987975;28;20070;-77
2022/04/16 00:13:40;;;;;;;4.88;2.20;;;;;;;;;;4966415;28;20042;-77
2022/04/16 00:16:06;;;;;;;6.10;2.72;;;;;;;;;;4982894;28;20030;-77
2022/04/16 00:18:32;;;;;;;8.13;3.05;;;;;;;;;;4972666;28;20042;-77
2022/04/16 00:20:57;;;;;;;5.75;2.42;;;;;;;;;;4966377;28;20407;-77
2022/04/16 00:23:23;;;;;;;6.80;2.70;;;;;;;;;;4971808;28;20044;-76
2022/04/16 00:25:49;;;;;;;5.35;2.42;;;;;;;;;;4970955;28;20044;-77
2022/04/16 00:28:14;;;;;;;6.65;2.60;;;;;;;;;;4978493;28;20046;-77
2022/04/16 00:30:40;;;;;;;5.75;2.25;;;;;;;;;;4964924;28;20038;-77
2022/04/16 00:33:12;;;;;;;5.38;2.22;;;;;;;;;;4961146;28;20715;-77
2022/04/16 00:35:38;;;;;;;7.35;2.60;;;;;;;;;;4976155;28;20050;-76
2022/04/16 00:38:03;;;;;;;6.78;2.28;;;;;;;;;;4976104;28;20066;-76
2022/04/16 00:40:29;;;;;;;7.45;2.13;;;;;;;;;;4975325;28;20470;-77
2022/04/16 00:42:54;;;;;;;6.80;2.50;;;;;;;;;;4972336;28;20034;-76
2022/04/16 00:45:20;;;;;;;5.13;2.08;;;;;;;;;;4972834;28;20134;-76
2022/04/16 00:47:45;;;;;;;4.63;2.03;;;;;;;;;;4971337;28;20042;-76
2022/04/16 00:50:12;;;;;;;6.90;2.53;;;;;;;;;;4966183;28;20046;-76
2022/04/16 00:52:38;;;;;;;4.93;2.17;;;;;;;;;;4983619;28;20026;-77
2022/04/16 00:55:05;;;;;;;7.45;2.10;;;;;;;;;;4991489;28;20054;-77
2022/04/16 00:57:30;;;;;;;5.43;1.80;;;;;;;;;;5001425;28;20218;-76
2022/04/16 00:59:56;;;;;;;5.15;2.00;;;;;;;;;;4995057;28;20062;-76
2022/04/16 01:02:21;;;;;;;5.85;1.88;;;;;;;;;;4992353;28;20045;-76
2022/04/16 01:04:47;;;;;;;7.03;2.00;;;;;;;;;;4993018;28;20128;-76
2022/04/16 01:07:12;;;;;;;6.70;1.85;;;;;;;;;;4969136;28;20045;-76
2022/04/16 01:09:37;;;;;;;7.47;2.25;;;;;;;;;;4976497;28;20038;-76
2022/04/16 01:12:03;;;;;;;4.85;1.60;;;;;;;;;;4973124;28;20756;-76
2022/04/16 01:14:29;;;;;;;5.32;1.75;;;;;;;;;;4976749;28;20038;-76
2022/04/16 01:16:55;;;;;;;6.53;1.90;;;;;;;;;;4965857;28;20114;-76
2022/04/16 01:19:21;;;;;;;6.47;2.00;;;;;;;;;;4970273;28;20041;-76
2022/04/16 01:21:46;;;;;;;5.43;1.70;;;;;;;;;;4970913;28;20031;-76
2022/04/16 01:24:14;;;;;;;4.95;1.77;;;;;;;;;;4960176;28;20043;-75
2022/04/16 01:26:41;;;;;;;5.65;1.70;;;;;;;;;;4986357;28;20039;-76
2022/04/16 01:29:07;;;;;;;6.20;2.00;;;;;;;;;;4992933;28;20121;-76
2022/04/16 01:31:32;;;;;;;6.40;1.70;;;;;;;;;;4994783;28;20890;-76
2022/04/16 01:33:58;;;;;;;6.82;2.00;;;;;;;;;;4985544;28;20036;-76
2022/04/16 01:36:25;;;;;;;5.13;1.90;;;;;;;;;;4995156;28;20042;-76
2022/04/16 01:38:51;;;;;;;5.35;1.88;;;;;;;;;;4993568;28;20045;-76
2022/04/16 01:41:16;;;;;;;5.43;1.70;;;;;;;;;;4998529;28;20405;-76
2022/04/16 01:43:41;;;;;;;8.02;2.13;;;;;;;;;;4993811;28;20153;-76
2022/04/16 01:46:06;;;;;;;7.55;2.00;;;;;;;;;;4994298;28;20401;-77
2022/04/16 01:48:32;;;;;;;9.75;2.10;;;;;;;;;;4994087;28;20504;-76
2022/04/16 01:50:58;;;;;;;7.32;2.08;;;;;;;;;;4991870;28;20100;-76
2022/04/16 01:53:23;;;;;;;6.60;2.00;;;;;;;;;;4986164;28;20149;-76
2022/04/16 01:55:49;;;;;;;6.22;2.00;;;;;;;;;;4997689;28;20031;-77
2022/04/16 01:58:15;;;;;;;7.60;1.80;;;;;;;;;;4987282;28;20045;-76
2022/04/16 02:00:40;;;;;;;9.15;2.17;;;;;;;;;;4994347;28;20030;-76
2022/04/16 02:03:08;;;;;;;4.75;1.92;;;;;;;;;;4971460;28;20030;-76
2022/04/16 02:05:34;;;;;;;5.85;1.95;;;;;;;;;;4972373;28;20038;-77
2022/04/16 02:08:00;;;;;;;4.68;1.70;;;;;;;;;;4980159;28;20148;-77
2022/04/16 02:10:25;;;;;;;6.88;1.90;;;;;;;;;;4971954;28;20046;-76
2022/04/16 02:12:50;;;;;;;5.65;1.80;;;;;;;;;;4981442;28;20117;-76
2022/04/16 02:15:16;;;;;;;6.70;1.80;;;;;;;;;;4976832;28;20125;-77
2022/04/16 02:17:41;;;;;;;5.28;2.00;;;;;;;;;;4997189;28;20054;-76
2022/04/16 02:20:08;;;;;;;8.35;2.75;;;;;;;;;;4986503;28;20541;-77
2022/04/16 02:22:46;;;;;;;7.60;1.90;;;;;;;;;;4982039;28;20366;-76
2022/04/16 02:25:17;;;;;;;5.32;1.95;;;;;;;;;;4970756;28;20044;-76
2022/04/16 02:27:42;;;;;;;5.15;1.90;;;;;;;;;;4969072;28;20401;-76
2022/04/16 02:30:12;;;;;;;6.28;1.83;;;;;;;;;;4968660;28;20061;-76
2022/04/16 02:32:43;;;;;;;7.32;2.33;;;;;;;;;;4995354;28;20038;-77
2022/04/16 02:35:09;;;;;;;4.22;1.70;;;;;;;;;;5000573;28;20486;-76
2022/04/16 02:37:35;;;;;;;5.85;1.90;;;;;;;;;;4979452;28;20038;-76
2022/04/16 02:40:01;;;;;;;5.20;1.77;;;;;;;;;;4996201;28;20044;-76
2022/04/16 02:42:28;;;;;;;5.63;1.80;;;;;;;;;;4988059;28;20390;-77
2022/04/16 02:47:37;;;;;;;5.03;1.67;;;;;;;;;;4997693;28;20045;-76
2022/04/16 02:50:03;;;;;;;5.63;1.90;;;;;;;;;;4998559;28;20038;-76
2022/04/16 02:52:33;;;;;;;5.47;1.73;;;;;;;;;;4995178;28;20046;-76
2022/04/16 02:54:58;;;;;;;6.50;1.98;;;;;;;;;;4974433;28;20065;-77
2022/04/16 02:57:23;;;;;;;5.30;1.70;;;;;;;;;;4996964;28;20052;-76
2022/04/16 02:59:49;;;;;;;5.53;1.70;;;;;;;;;;4982283;28;20104;-76
2022/04/16 03:02:14;;;;;;;6.22;1.83;;;;;;;;;;5003703;28;20163;-76
2022/04/16 03:04:39;;;;;;;4.45;1.98;;;;;;;;;;4993986;28;20026;-77
2022/04/16 03:07:05;;;;;;;5.25;1.73;;;;;;;;;;4993793;28;20033;-76
2022/04/16 03:09:30;;;;;;;4.93;2.55;;;;;;;;;;4977370;28;20404;-77
2022/04/16 03:11:55;;;;;;;5.65;2.17;;;;;;;;;;4982915;28;20034;-76
2022/04/16 03:19:49;;;;;;;5.32;1.83;;;;;;;;;;4995066;28;20048;-76
2022/04/16 03:22:15;;;;;;;6.03;1.77;;;;;;;;;;4977000;28;20765;-77
2022/04/16 03:24:40;;;;;;;5.60;2.10;;;;;;;;;;4996860;28;20038;-76
2022/04/16 03:27:06;;;;;;;5.55;1.77;;;;;;;;;;4986892;28;20152;-77
2022/04/16 03:29:32;;;;;;;4.85;1.40;;;;;;;;;;4993325;28;20059;-76
2022/04/16 03:31:57;;;;;;;6.60;1.90;;;;;;;;;;4981399;28;20046;-76
2022/04/16 03:34:23;;;;;;;5.88;1.73;;;;;;;;;;4996365;28;20494;-77
2022/04/16 03:36:49;;;;;;;6.65;2.17;;;;;;;;;;4997046;28;20049;-76
2022/04/16 03:39:14;;;;;;;5.90;1.77;;;;;;;;;;4996219;28;20041;-76
2022/04/16 03:41:39;;;;;;;5.55;1.75;;;;;;;;;;4977882;28;20029;-77
2022/04/16 03:44:06;;;;;;;6.05;1.92;;;;;;;;;;4963939;28;20060;-77
2022/04/16 03:46:31;;;;;;;5.78;2.00;;;;;;;;;;4961637;28;20664;-77
2022/04/16 03:48:59;;;;;;;6.25;2.38;;;;;;;;;;4967677;28;20038;-76
2022/04/16 03:51:26;;;;;;;6.85;1.70;;;;;;;;;;4975919;28;20049;-76
2022/04/16 03:53:51;;;;;;;5.05;2.20;;;;;;;;;;4984789;28;20038;-76
2022/04/16 04:02:01;;;;;;;5.60;2.00;;;;;;;;;;4988806;28;20037;-76
2022/04/16 04:04:27;;;;;;;4.97;1.85;;;;;;;;;;4985688;28;20030;-76
2022/04/16 04:06:52;;;;;;;4.93;1.88;;;;;;;;;;4992111;28;20035;-76
2022/04/16 04:09:17;;;;;;;4.05;1.75;;;;;;;;;;4983597;28;20449;-77
2022/04/16 04:11:42;;;;;;;5.22;2.00;;;;;;;;;;4996985;28;20042;-77
2022/04/16 04:14:08;;;;;;;5.72;2.08;;;;;;;;;;4984687;28;20433;-76
2022/04/16 04:16:33;;;;;;;7.03;1.88;;;;;;;;;;4995531;28;20100;-76
2022/04/16 04:18:58;;;;;;;6.75;1.90;;;;;;;;;;4986567;28;20100;-76
2022/04/16 04:21:23;;;;;;;8.95;2.28;;;;;;;;;;4993615;28;20087;-76
2022/04/16 04:23:49;;;;;;;3.95;1.80;;;;;;;;;;4977160;28;20038;-76
2022/04/16 04:26:14;;;;;;;4.22;1.83;;;;;;;;;;4993492;28;20038;-76
2022/04/16 04:28:39;;;;;;;4.43;1.95;;;;;;;;;;4996886;28;20037;-76
2022/04/16 04:31:04;;;;;;;5.60;2.00;;;;;;;;;;4991437;28;20410;-77
2022/04/16 04:33:32;;;;;;;7.00;1.70;;;;;;;;;;4994845;28;20184;-76
2022/04/16 04:35:57;;;;;;;4.22;1.70;;;;;;;;;;4985104;28;20042;-76
2022/04/16 04:38:23;;;;;;;6.18;1.95;;;;;;;;;;4993856;28;20042;-76
2022/04/16 04:40:48;;;;;;;4.40;1.70;;;;;;;;;;4994466;28;20041;-76
2022/04/16 04:43:13;;;;;;;6.07;2.08;;;;;;;;;;4994576;28;20042;-77
2022/04/16 04:45:42;;;;;;;6.43;1.98;;;;;;;;;;4985714;28;20034;-77
2022/04/16 04:48:07;;;;;;;6.38;2.15;;;;;;;;;;4995554;28;20030;-77
2022/04/16 04:50:33;;;;;;;7.53;2.13;;;;;;;;;;4991788;28;20149;-77
2022/04/16 04:52:58;;;;;;;5.93;2.08;;;;;;;;;;4999186;28;20441;-77
2022/04/16 04:55:23;;;;;;;7.15;1.80;;;;;;;;;;4976068;28;20101;-77
2022/04/16 04:57:54;;;;;;;6.45;2.10;;;;;;;;;;4979230;28;20436;-76
2022/04/16 05:00:19;;;;;;;6.32;1.95;;;;;;;;;;4991857;28;20038;-76
2022/04/16 05:02:45;;;;;;;6.22;1.73;;;;;;;;;;4992268;28;20046;-77
2022/04/16 05:05:11;;;;;;;5.55;2.00;;;;;;;;;;4992926;28;20038;-77
2022/04/16 05:07:36;;;;;;;4.95;1.80;;;;;;;;;;4991058;28;20044;-76
2022/04/16 05:10:03;;;;;;;5.30;1.98;;;;;;;;;;4993894;28;20074;-77
2022/04/16 05:12:31;;;;;;;4.72;1.90;;;;;;;;;;4984887;28;20619;-76
2022/04/16 05:14:57;;;;;;;6.40;1.85;;;;;;;;;;4992964;28;20479;-76
2022/04/16 05:17:22;;;;;;;6.32;2.00;;;;;;;;;;4990579;28;20034;-76
2022/04/16 05:19:47;;;;;;;6.45;2.00;;;;;;;;;;4976749;28;20505;-76
2022/04/16 05:22:13;;;;;;;5.03;2.00;;;;;;;;;;4994176;28;20038;-76
2022/04/16 05:24:38;;;;;;;6.75;2.40;;;;;;;;;;4993763;28;20041;-77
2022/04/16 05:27:03;;;;;;;4.97;1.73;;;;;;;;;;4991723;28;20116;-77
2022/04/16 05:29:48;;;;;;;5.05;1.70;;;;;;;;;;4997492;28;20037;-76
2022/04/16 05:32:19;;;;;;;6.63;1.83;;;;;;;;;;4978772;28;20042;-77
2022/04/16 05:34:44;;;;;;;3.75;1.70;;;;;;;;;;4978391;28;20544;-77
2022/04/16 05:37:09;;;;;;;5.35;2.00;;;;;;;;;;4969818;28;20054;-77
2022/04/16 05:39:37;;;;;;;6.97;2.22;;;;;;;;;;4978841;28;20205;-76
2022/04/16 05:42:02;;;;;;;7.40;2.10;;;;;;;;;;4985089;28;20033;-76
2022/04/16 05:44:27;;;;;;;4.65;1.73;;;;;;;;;;4995780;28;20614;-76
2022/04/16 05:46:52;;;;;;;4.47;1.90;;;;;;;;;;4984400;28;20363;-76
2022/04/16 05:49:18;;;;;;;6.03;2.05;;;;;;;;;;4981587;28;20161;-77
2022/04/16 05:51:43;;;;;;;6.18;2.42;;;;;;;;;;4998672;28;20034;-77
2022/04/16 05:54:09;;;;;;;6.28;1.75;;;;;;;;;;4998138;28;20042;-77
2022/04/16 05:56:34;;;;;;;6.03;2.10;;;;;;;;;;4994662;28;20080;-77
2022/04/16 05:59:00;;;;;;;5.68;2.13;;;;;;;;;;4980852;28;20042;-77
2022/04/16 06:01:25;;;;;;;5.57;2.00;;;;;;;;;;4986839;28;20034;-76
2022/04/16 06:03:51;;;;;;;5.30;2.03;;;;;;;;;;4989575;28;20046;-76
2022/04/16 06:06:16;;;;;;;6.43;2.20;;;;;;;;;;4998464;28;20047;-77
2022/04/16 06:08:41;;;;;;;4.68;1.80;;;;;;;;;;4984331;28;20399;-77
2022/04/16 06:11:07;;;;;;;4.78;2.00;;;;;;;;;;4962833;28;20479;-77
2022/04/16 06:13:33;;;;;;;5.93;2.20;;;;;;;;;;4978033;28;20121;-77
2022/04/16 06:15:59;;;;;;;4.47;2.03;;;;;;;;;;4969403;28;20045;-77
2022/04/16 06:18:24;;;;;;;6.43;2.30;;;;;;;;;;4987698;28;20045;-77
2022/04/16 06:20:49;;;;;;;4.80;2.08;;;;;;;;;;4988761;28;20035;-77
2022/04/16 06:23:15;;;;;;;8.00;1.80;;;;;;;;;;4960444;28;20034;-77
2022/04/16 06:25:40;;;;;;;6.00;2.10;;;;;;;;;;4965934;28;20121;-77
2022/04/16 06:28:06;;;;;;;5.25;1.95;;;;;;;;;;4988102;28;20034;-76
2022/04/16 06:30:31;;;;;;;5.50;2.17;;;;;;;;;;4988974;28;20133;-78
2022/04/16 06:32:56;;;;;;;6.60;2.70;;;;;;;;;;4996610;28;20085;-78
2022/04/16 06:35:22;;;;;;;5.55;2.03;;;;;;;;;;5003727;28;20442;-77
2022/04/16 06:37:48;;;;;;;3.70;1.90;;;;;;;;;;5004597;28;20386;-76
2022/04/16 06:40:13;;;;;;;6.75;2.22;;;;;;;;;;4994913;28;20034;-75
2022/04/16 06:42:39;;;;;;;5.80;2.10;;;;;;;;;;4995192;28;20045;-76
2022/04/16 06:45:08;;;;;;;4.82;1.65;;;;;;;;;;4981086;28;20038;-76
2022/04/16 06:47:34;;;;;;;6.72;2.13;;;;;;;;;;4995952;28;20086;-77
2022/04/16 06:50:00;;;;;;;9.48;3.78;;;;;;;;;;4975616;28;20034;-76
2022/04/16 06:52:25;;;;;;;5.63;2.05;;;;;;;;;;4984355;28;20156;-76
2022/04/16 06:54:50;;;;;;;5.32;2.00;;;;;;;;;;4988288;28;20044;-76
2022/04/16 06:57:16;;;;;;;6.45;2.17;;;;;;;;;;4998635;28;20125;-76
2022/04/16 06:59:42;;;;;;;4.57;1.73;;;;;;;;;;4997007;28;20062;-76
2022/04/16 07:02:08;;;;;;;6.32;2.17;;;;;;;;;;4981180;28;20026;-77
2022/04/16 07:04:34;;;;;;;5.53;2.13;;;;;;;;;;5006064;28;20556;-77
2022/04/16 07:06:59;;;;;;;3.83;1.80;;;;;;;;;;4986129;28;20121;-77
2022/04/16 07:09:25;;;;;;;5.10;1.90;;;;;;;;;;4970373;28;20070;-77
2022/04/16 07:11:50;;;;;;;6.25;2.00;;;;;;;;;;4974545;28;20959;-77
2022/04/16 07:14:48;;;;;;;6.18;2.08;;;;;;;;;;4980039;28;20040;-77
2022/04/16 07:17:13;;;;;;;5.03;1.77;;;;;;;;;;4961248;28;20049;-79
2022/04/16 07:19:39;;;;;;;5.57;1.80;;;;;;;;;;4989876;28;20429;-78
2022/04/16 07:22:05;;;;;;;5.00;1.65;;;;;;;;;;4995717;28;20050;-77
2022/04/16 07:24:30;;;;;;;5.72;1.45;;;;;;;;;;4996087;28;20406;-77
2022/04/16 07:26:55;;;;;;;5.57;2.13;;;;;;;;;;5002970;28;20626;-78
2022/04/16 07:29:22;;;;;;;4.97;2.17;;;;;;;;;;4994158;28;20544;-78
2022/04/16 07:31:47;;;;;;;4.88;2.25;;;;;;;;;;5004127;28;20080;-78
2022/04/16 07:34:13;;;;;;;5.45;2.47;;;;;;;;;;4996655;28;20043;-78
2022/04/16 07:36:38;;;;;;;5.38;3.03;;;;;;;;;;4987400;28;20029;-78
2022/04/16 07:39:04;;;;;;;5.65;3.30;;;;;;;;;;4991555;28;20061;-78
2022/04/16 07:41:29;;;;;;;6.28;3.90;;;;;;;;;;4996621;28;20052;-78
2022/04/16 07:43:55;;;;;;;5.00;3.72;;;;;;;;;;4978452;28;20061;-77
2022/04/16 07:46:22;;;;;;;5.68;4.05;;;;;;;;;;4996290;28;20088;-78
2022/04/16 07:48:47;;;;;;;6.65;4.40;;;;;;;;;;4986148;28;20101;-79
2022/04/16 07:51:13;;;;;;;7.20;4.32;;;;;;;;;;4990329;28;20039;-78
2022/04/16 07:53:38;;;;;;;6.93;4.13;;;;;;;;;;4983185;28;20049;-80
2022/04/16 07:56:04;;;;;;;7.22;4.53;;;;;;;;;;4998551;28;20430;-78
2022/04/16 07:58:29;;;;;;;7.00;4.60;;;;;;;;;;4994479;28;20030;-78
2022/04/16 08:00:54;;;;;;;6.28;4.57;;;;;;;;;;4979697;28;20486;-78
2022/04/16 08:03:23;;;;;;;7.20;3.97;;;;;;;;;;4984267;28;20030;-79
2022/04/16 08:05:48;;;;;;;5.38;3.80;;;;;;;;;;4979234;28;20042;-78
2022/04/16 08:08:14;;;;;;;5.10;3.20;;;;;;;;;;4984902;28;20052;-78
2022/04/16 08:10:39;;;;;;;4.15;3.03;;;;;;;;;;4987086;28;20037;-79
2022/04/16 08:13:07;;;;;;;5.18;2.78;;;;;;;;;;4986564;28;20038;-78
2022/04/16 08:15:33;;;;;;;;;;;;;;;;;;4998295;28;20176;-79
2022/04/16 08:17:58;;;;;;;5.28;1.90;;;;;;;;;;4981407;28;19917;-75
2022/04/16 08:20:24;;;;;;;6.10;1.90;;;;;;;;;;4993210;28;20045;-75
2022/04/16 08:22:49;;;;;;;4.13;1.80;;;;;;;;;;4992796;28;20041;-77
2022/04/16 08:27:55;;;;;;;3.30;1.20;;;;;;;;;;4994297;28;20033;-76
2022/04/16 08:30:21;;;;;;;4.18;1.48;;;;;;;;;;4999348;28;20050;-76
2022/04/16 08:32:47;;;;;;;5.50;1.25;;;;;;;;;;4986226;28;20081;-79
2022/04/16 08:35:14;;;;;;;10.30;4.15;;;;;;;;;;4994355;28;20070;-75
2022/04/16 08:37:40;;;;;;;3.70;1.05;;;;;;;;;;5002074;28;20058;-76
2022/04/16 08:40:26;;;;;;;2.92;0.85;;;;;;;;;;4993964;28;20037;-75
2022/04/16 08:42:52;;;;;;;3.00;1.03;;;;;;;;;;4965257;28;20042;-74
2022/04/16 08:45:18;;;;;;;3.95;0.88;;;;;;;;;;4938244;28;20042;-76
2022/04/16 08:47:44;;;;;;;3.75;1.05;;;;;;;;;;4928176;28;20063;-76
2022/04/16 08:50:11;;;;;;;7.88;1.25;;;;;;;;;;4915685;28;20202;-76
2022/04/16 08:52:38;;;;;;;4.20;0.90;;;;;;;;;;4947471;28;20044;-77
2022/04/16 08:55:09;;;;;;;3.70;1.17;;;;;;;;;;4947979;28;20034;-76
2022/04/16 08:57:34;;;;;;;3.75;1.42;;;;;;;;;;4947677;28;20038;-78
2022/04/16 08:59:59;;;;;;;5.80;1.45;;;;;;;;;;4963005;28;22048;-76
2022/04/16 09:02:26;;;;;;;3.15;0.85;;;;;;;;;;4933525;28;20042;-76
2022/04/16 09:05:06;;;;;;;3.53;1.00;;;;;;;;;;4928880;28;20114;-77
2022/04/16 09:07:32;;;;;;;3.28;0.90;;;;;;;;;;4953014;28;20030;-77
2022/04/16 09:10:08;;;;;;;2.78;0.80;;;;;;;;;;4947229;28;20094;-76
2022/04/16 09:12:36;;;;;;;3.45;0.80;;;;;;;;;;4939043;28;20042;-76
2022/04/16 09:15:09;;;;;;;2.38;0.73;;;;;;;;;;4932246;28;20070;-76
2022/04/16 09:17:34;;;;;;;3.05;0.88;;;;;;;;;;4915815;28;20047;-76
2022/04/16 09:20:00;;;;;;;2.42;0.73;;;;;;;;;;4940196;28;20040;-76
2022/04/16 09:22:36;;;;;;;2.90;0.80;;;;;;;;;;4958590;28;20066;-77
2022/04/16 09:25:02;;;;;;;2.25;0.70;;;;;;;;;;4981942;28;20042;-77
2022/04/16 09:27:38;;;;;;;2.55;0.95;;;;;;;;;;4965503;28;20434;-78
2022/04/16 09:30:04;;;;;;;1.77;0.50;;;;;;;;;;4978400;28;20043;-77
2022/04/16 09:32:30;;;;;;;3.33;0.75;;;;;;;;;;4974610;28;20031;-77
2022/04/16 09:34:56;;;;;;;3.08;0.80;;;;;;;;;;4972769;28;20078;-77
2022/04/16 09:37:24;;;;;;;2.90;0.60;;;;;;;;;;4992462;28;20069;-77
2022/04/16 09:39:49;;;;;;;2.78;0.70;;;;;;;;;;4999577;28;20512;-77
2022/04/16 09:42:27;;;;;;;2.13;0.60;;;;;;;;;;4978093;28;20034;-76
2022/04/16 09:44:52;;;;;;;;;;;;;;;;;;4984761;28;20034;-77
2022/04/16 09:47:22;;;;;;;1.93;0.50;;;;;;;;;;4993454;28;20420;-77
2022/04/16 09:49:49;;;;;;;2.20;0.70;;;;;;;;;;4979144;28;20289;-78
2022/04/16 09:52:14;;;;;;;1.88;0.60;;;;;;;;;;4982501;28;20565;-77
2022/04/16 09:54:40;;;;;;;1.75;0.60;;;;;;;;;;4992261;28;20053;-78
2022/04/16 09:57:05;;;;;;;2.00;0.70;;;;;;;;;;4994977;28;20329;-77
2022/04/16 09:59:35;;;;;;;2.60;0.70;;;;;;;;;;4993584;28;20363;-77
2022/04/16 10:02:05;;;;;;;1.88;0.50;;;;;;;;;;4957079;28;20035;-77
2022/04/16 10:04:31;;;;;;;2.53;0.80;;;;;;;;;;4975955;28;20394;-77
2022/04/16 10:06:56;;;;;;;1.77;0.50;;;;;;;;;;4956621;28;20042;-77
2022/04/16 10:09:24;;;;;;;2.72;0.70;;;;;;;;;;4957653;28;20421;-77
2022/04/16 10:14:46;;;;;;;;;;;;;;;;;;5005706;28;20045;-76
2022/04/16 10:17:14;;;;;;;2.10;0.50;;;;;;;;;;4993769;28;19941;-76
2022/04/16 10:19:40;;;;;;;1.65;0.70;;;;;;;;;;4999684;28;20489;-77
2022/04/16 10:22:05;;;;;;;2.72;0.80;;;;;;;;;;4984936;28;20494;-78
2022/04/16 10:24:31;;;;;;;2.33;0.70;;;;;;;;;;4987721;28;20042;-77
2022/04/16 10:27:07;;;;;;;2.63;0.90;;;;;;;;;;4985783;28;20054;-77
2022/04/16 10:29:39;;;;;;;2.78;0.90;;;;;;;;;;4979142;28;20601;-77
2022/04/16 10:32:14;;;;;;;2.83;0.88;;;;;;;;;;4984150;28;20044;-78
2022/04/16 10:34:40;;;;;;;2.45;0.80;;;;;;;;;;4991298;28;20041;-77
2022/04/16 10:37:07;;;;;;;2.45;0.80;;;;;;;;;;4995646;28;20050;-78
2022/04/16 10:39:35;;;;;;;2.42;0.70;;;;;;;;;;5001555;28;20515;-77
2022/04/16 10:42:04;;;;;;;2.45;0.70;;;;;;;;;;4984586;28;20486;-77
2022/04/16 10:44:45;;;;;;;2.08;0.70;;;;;;;;;;4968324;28;20474;-78
2022/04/16 10:47:15;;;;;;;2.00;0.70;;;;;;;;;;4967122;28;20038;-76
2022/04/16 10:49:41;;;;;;;2.55;0.95;;;;;;;;;;4973527;28;20043;-77
2022/04/16 10:52:28;;;;;;;3.42;0.80;;;;;;;;;;4988316;28;20042;-76
2022/04/16 10:55:03;;;;;;;1.92;0.50;;;;;;;;;;4986576;28;20126;-77
2022/04/16 10:57:29;;;;;;;2.38;0.98;;;;;;;;;;4973223;28;20118;-76
2022/04/16 10:59:57;;;;;;;2.63;0.90;;;;;;;;;;4977231;28;20639;-77
2022/04/16 11:02:25;;;;;;;2.20;0.70;;;;;;;;;;4976437;28;20084;-76
2022/04/16 11:04:57;;;;;;;1.45;0.60;;;;;;;;;;5002018;28;20029;-77
2022/04/16 11:07:26;;;;;;;1.70;0.70;;;;;;;;;;4958696;28;20576;-75
2022/04/16 11:09:52;;;;;;;2.90;0.70;;;;;;;;;;4981477;28;20104;-76
2022/04/16 11:12:21;;;;;;;3.00;0.80;;;;;;;;;;4977428;28;20042;-77
2022/04/16 11:14:51;;;;;;;2.47;0.80;;;;;;;;;;4967486;28;20041;-77
2022/04/16 11:17:17;;;;;;;2.42;0.77;;;;;;;;;;4981815;28;20050;-77
2022/04/16 11:20:05;;;;;;;2.85;0.80;;;;;;;;;;4981592;28;20065;-76
2022/04/16 11:22:31;;;;;;;2.65;0.70;;;;;;;;;;4983786;28;20366;-77
2022/04/16 11:24:57;;;;;;;1.92;0.60;;;;;;;;;;4985978;28;20042;-77
2022/04/16 11:35:54;;;;;;;;;;;;;;;;;;4996012;28;20568;-77
2022/04/16 11:38:46;;;;;;;2.38;0.60;;;;;;;;;;4994334;28;19924;-77
2022/04/16 11:41:14;;;;;;;2.58;0.70;;;;;;;;;;4967188;28;20053;-76
2022/04/16 11:43:47;;;;;;;1.83;0.60;;;;;;;;;;4984117;28;20046;-76
2022/04/16 11:46:14;;;;;;;2.15;0.60;;;;;;;;;;4981787;28;20073;-77
2022/04/16 11:48:49;;;;;;;;;;;;;;;;;;5003821;28;20058;-77
2022/04/16 11:51:15;;;;;;;2.67;0.55;;;;;;;;;;4979326;28;19929;-77
2022/04/16 11:53:43;;;;;;;2.03;0.50;;;;;;;;;;5003017;28;20046;-77
2022/04/16 11:56:10;;;;;;;1.45;0.50;;;;;;;;;;4985145;28;20128;-77
2022/04/16 11:58:35;;;;;;;2.85;0.60;;;;;;;;;;4992034;28;20477;-77
2022/04/16 12:01:02;;;;;;;1.90;0.60;;;;;;;;;;4978457;28;20042;-77
2022/04/16 12:03:37;;;;;;;;;;;;;;;;;;4975982;28;20486;-77
2022/04/16 12:06:07;;;;;;;1.80;0.40;;;;;;;;;;4973108;28;20373;-77
2022/04/16 12:08:33;;;;;;;1.55;0.40;;;;;;;;;;4970281;28;20034;-77
2022/04/16 12:10:59;;;;;;;2.03;0.52;;;;;;;;;;4978433;28;20034;-77
2022/04/16 12:13:34;;;;;;;5.40;0.60;;;;;;;;;;4979455;28;20042;-77
2022/04/16 12:16:05;;;;;;;1.38;0.50;;;;;;;;;;5000604;28;20041;-77
2022/04/16 12:18:36;;;;;;;1.42;0.50;;;;;;;;;;4960610;28;20074;-77
2022/04/16 12:21:07;;;;;;;1.80;0.50;;;;;;;;;;4964561;28;20501;-76
2022/04/16 12:23:38;;;;;;;2.92;0.70;;;;;;;;;;4979928;28;20045;-77
2022/04/16 12:26:08;;;;;;;5.00;0.77;;;;;;;;;;4981974;28;20386;-79
2022/04/16 12:28:43;;;;;;;2.53;0.70;;;;;;;;;;4981847;28;20034;-78
2022/04/16 12:31:08;;;;;;;3.65;1.00;;;;;;;;;;4976989;28;20409;-78
2022/04/16 12:33:34;;;;;;;1.92;0.65;;;;;;;;;;4994471;28;20125;-76
2022/04/16 12:35:59;;;;;;;2.60;0.73;;;;;;;;;;4983978;28;20553;-76
2022/04/16 12:38:25;;;;;;;2.40;0.70;;;;;;;;;;4993258;28;20448;-75
2022/04/16 12:41:09;;;;;;;2.63;0.70;;;;;;;;;;4981524;28;20034;-76
2022/04/16 12:43:35;;;;;;;3.20;0.88;;;;;;;;;;4957921;28;20041;-75
2022/04/16 12:46:00;;;;;;;2.95;0.80;;;;;;;;;;4984487;28;20041;-75
2022/04/16 12:48:25;;;;;;;5.72;0.95;;;;;;;;;;4991145;28;20080;-78
2022/04/16 12:50:51;;;;;;;2.20;0.50;;;;;;;;;;4977815;28;20378;-75
2022/04/16 12:53:16;;;;;;;1.98;0.50;;;;;;;;;;4997890;28;20503;-76
2022/04/16 12:55:41;;;;;;;2.95;0.70;;;;;;;;;;4983257;28;20374;-76
2022/04/16 12:58:07;;;;;;;1.75;0.40;;;;;;;;;;4979152;28;20041;-77
2022/04/16 13:00:34;;;;;;;1.77;0.52;;;;;;;;;;4996929;28;20045;-76
2022/04/16 13:02:59;;;;;;;3.25;0.70;;;;;;;;;;4976525;28;20037;-76
2022/04/16 13:05:26;;;;;;;3.22;0.68;;;;;;;;;;4983133;28;20042;-76
2022/04/16 13:07:51;;;;;;;1.90;0.60;;;;;;;;;;4961867;28;20930;-76
2022/04/16 13:10:17;;;;;;;1.70;0.55;;;;;;;;;;4971257;28;20067;-76
2022/04/16 13:12:42;;;;;;;1.73;0.55;;;;;;;;;;4983190;28;20034;-76
2022/04/16 13:15:08;;;;;;;3.22;0.70;;;;;;;;;;4976631;28;20570;-76
2022/04/16 13:17:34;;;;;;;1.85;0.52;;;;;;;;;;4993523;28;20835;-76
2022/04/16 13:20:00;;;;;;;1.92;0.73;;;;;;;;;;4993306;28;20033;-76
2022/04/16 13:22:26;;;;;;;2.65;0.52;;;;;;;;;;4977250;28;20042;-75
2022/04/16 13:24:52;;;;;;;2.53;0.80;;;;;;;;;;4979743;28;20056;-76
2022/04/16 13:27:17;;;;;;;1.85;0.57;;;;;;;;;;4979115;28;20034;-78
2022/04/16 13:29:43;;;;;;;3.05;0.70;;;;;;;;;;4981680;28;20108;-76
2022/04/16 13:32:08;;;;;;;2.88;0.68;;;;;;;;;;4982169;28;20033;-76
2022/04/16 13:34:34;;;;;;;3.03;0.60;;;;;;;;;;4993250;28;20087;-76
2022/04/16 13:37:01;;;;;;;2.65;0.60;;;;;;;;;;4995119;28;20046;-76
2022/04/16 13:42:15;;;;;;;2.22;0.60;;;;;;;;;;4975386;28;19969;-77
2022/04/16 13:44:40;;;;;;;2.10;0.60;;;;;;;;;;4981209;28;20033;-77
2022/04/16 13:47:07;;;;;;;1.42;0.55;;;;;;;;;;4979317;28;20034;-77
2022/04/16 13:49:33;;;;;;;2.58;0.57;;;;;;;;;;4963651;28;20034;-77
2022/04/16 13:51:59;;;;;;;1.48;0.40;;;;;;;;;;4967658;28;20049;-77
2022/04/16 13:54:24;;;;;;;1.40;0.47;;;;;;;;;;4981486;28;20034;-77
2022/04/16 13:56:49;;;;;;;1.75;0.45;;;;;;;;;;4997633;28;20304;-77
2022/04/16 13:59:15;;;;;;;1.77;0.50;;;;;;;;;;4981349;28;20069;-77
2022/04/16 14:01:41;;;;;;;1.25;0.50;;;;;;;;;;4981038;28;20791;-77
2022/04/16 14:04:06;;;;;;;1.13;0.40;;;;;;;;;;4997556;28;20042;-77
2022/04/16 14:06:34;;;;;;;1.70;0.60;;;;;;;;;;4965791;28;20038;-81
2022/04/16 14:09:01;;;;;;;3.08;0.50;;;;;;;;;;4978584;28;20074;-80
2022/04/16 14:11:28;;;;;;;1.08;0.40;;;;;;;;;;4970001;28;20520;-81
2022/04/16 14:13:54;;;;;;;2.30;0.53;;;;;;;;;;4968035;28;20041;-81
2022/04/16 14:16:19;;;;;;;1.33;0.45;;;;;;;;;;4987616;28;20037;-81
2022/04/16 14:18:44;;;;;;;1.48;0.43;;;;;;;;;;4970083;28;20394;-82
2022/04/16 14:21:11;;;;;;;1.40;0.45;;;;;;;;;;4962687;28;20065;-81
2022/04/16 14:23:37;;;;;;;1.95;0.65;;;;;;;;;;4969614;28;20038;-81
2022/04/16 14:26:06;;;;;;;1.63;0.60;;;;;;;;;;4974977;28;20585;-81
2022/04/16 14:28:34;;;;;;;1.90;0.73;;;;;;;;;;4987866;28;20069;-81
2022/04/16 14:31:00;;;;;;;2.15;0.50;;;;;;;;;;4987943;28;20046;-81
2022/04/16 14:33:26;;;;;;;1.33;0.47;;;;;;;;;;4985117;28;20442;-81
2022/04/16 14:35:51;;;;;;;2.40;0.40;;;;;;;;;;4996871;28;20394;-81
2022/04/16 14:38:18;;;;;;;3.00;0.77;;;;;;;;;;4988799;28;20038;-82
2022/04/16 14:40:44;;;;;;;3.22;0.70;;;;;;;;;;4989946;28;20548;-81
2022/04/16 14:43:11;;;;;;;2.45;0.50;;;;;;;;;;4998616;28;20041;-81
2022/04/16 14:45:38;;;;;;;2.13;0.55;;;;;;;;;;4999076;28;20041;-81
2022/04/16 14:48:04;;;;;;;3.08;0.70;;;;;;;;;;4978867;28;20052;-80
2022/04/16 14:50:30;;;;;;;3.30;0.80;;;;;;;;;;4970793;28;20046;-81
2022/04/16 14:52:55;;;;;;;1.48;0.60;;;;;;;;;;4969150;28;20042;-82
2022/04/16 14:55:20;;;;;;;3.60;1.08;;;;;;;;;;4973629;28;20040;-81
2022/04/16 14:57:46;;;;;;;2.63;0.70;;;;;;;;;;4980722;28;20397;-81
2022/04/16 15:00:12;;;;;;;2.35;0.80;;;;;;;;;;4978504;28;20524;-80
2022/04/16 15:02:40;;;;;;;2.13;0.50;;;;;;;;;;4998107;28;20033;-81
2022/04/16 15:05:07;;;;;;;2.63;0.50;;;;;;;;;;4970142;28;20030;-80
2022/04/16 15:07:32;;;;;;;2.08;0.80;;;;;;;;;;4992399;28;20053;-80
2022/04/16 15:09:57;;;;;;;1.65;0.60;;;;;;;;;;4998451;28;20034;-80
2022/04/16 15:12:26;;;;;;;2.28;0.60;;;;;;;;;;4988931;28;20445;-81
2022/04/16 15:14:52;;;;;;;1.60;0.50;;;;;;;;;;4987625;28;20038;-81